Time;durP1;ratioP1;P1;durP2;ratioP2;P2;SDS_P1;SDS_P2;PMS_P1;PMS_P2;Temp;Humidity;BMP_temperature;BMP_pressure;BME280_temperature;BME280_humidity;BME280_pressure;Samples;Min_cycle;Max_cycle;Signal;HPM_P1;HPM_P2
2022/10/24 00:00:06;;;;;;;5.38;4.35;;;13.60;77.60;;;;;;5030648;28;20199;-69
2022/10/24 00:02:32;;;;;;;5.50;4.03;;;13.60;77.10;;;;;;5030781;28;20184;-69
2022/10/24 00:04:58;;;;;;;10.05;4.25;;;13.50;76.80;;;;;;5065289;28;20645;-69
2022/10/24 00:07:23;;;;;;;6.55;4.53;;;13.50;77.80;;;;;;5027915;28;20194;-69
2022/10/24 00:09:49;;;;;;;7.30;3.90;;;13.50;78.10;;;;;;5029431;28;20215;-69
2022/10/24 00:12:16;;;;;;;5.60;3.75;;;13.50;77.70;;;;;;5029268;28;20180;-69
2022/10/24 00:14:41;;;;;;;5.30;4.13;;;13.50;78.10;;;;;;5032068;28;20199;-68
2022/10/24 00:17:07;;;;;;;6.22;3.72;;;13.50;77.50;;;;;;5030609;28;20621;-68
2022/10/24 00:19:33;;;;;;;3.45;3.15;;;13.50;78.00;;;;;;5027766;28;20278;-68
2022/10/24 00:21:58;;;;;;;5.15;3.53;;;13.50;78.40;;;;;;5024713;28;20196;-68
2022/10/24 00:24:24;;;;;;;4.78;3.42;;;13.50;78.10;;;;;;5035593;28;20241;-69
2022/10/24 00:26:51;;;;;;;3.70;3.50;;;13.40;77.70;;;;;;5032454;28;20210;-69
2022/10/24 00:29:16;;;;;;;4.70;4.30;;;13.40;78.20;;;;;;5032732;28;20801;-68
2022/10/24 00:31:42;;;;;;;3.95;3.65;;;13.40;78.10;;;;;;5025776;28;20175;-68
2022/10/24 00:34:08;;;;;;;5.78;4.03;;;13.40;78.20;;;;;;5031982;28;20181;-68
2022/10/24 00:36:33;;;;;;;3.97;3.67;;;13.40;78.40;;;;;;5028754;28;20181;-68
2022/10/24 00:39:00;;;;;;;4.70;3.78;;;13.40;79.20;;;;;;5028931;28;20189;-68
2022/10/24 00:41:30;;;;;;;5.55;4.03;;;13.40;78.80;;;;;;5024733;28;20234;-69
2022/10/24 00:44:15;;;;;;;6.88;4.65;;;13.40;78.60;;;;;;5029046;28;20184;-68
2022/10/24 00:46:45;;;;;;;5.38;3.42;;;13.30;78.40;;;;;;5029033;28;20277;-68
2022/10/24 00:49:14;;;;;;;5.53;3.88;;;13.30;78.60;;;;;;5030289;28;20211;-68
2022/10/24 00:51:40;;;;;;;4.53;3.75;;;13.20;78.00;;;;;;5027475;28;20259;-68
2022/10/24 00:54:10;;;;;;;5.80;3.92;;;13.20;78.50;;;;;;5063859;28;20180;-68
2022/10/24 00:56:43;;;;;;;3.72;3.45;;;13.20;78.30;;;;;;5032945;28;20181;-68
2022/10/24 00:59:11;;;;;;;5.88;3.90;;;13.20;78.00;;;;;;5032974;28;20574;-69
2022/10/24 01:01:38;;;;;;;5.38;3.95;;;13.10;77.90;;;;;;5031473;28;20188;-68
2022/10/24 01:04:05;;;;;;;4.63;3.55;;;13.10;79.00;;;;;;5031011;28;20670;-68
2022/10/24 01:06:46;;;;;;;4.72;4.25;;;13.10;79.10;;;;;;5028580;28;20211;-68
2022/10/24 01:09:26;;;;;;;5.93;4.13;;;13.10;78.80;;;;;;5030598;28;20906;-68
2022/10/24 01:11:55;;;;;;;4.45;4.05;;;13.00;78.70;;;;;;5033710;28;20233;-68
2022/10/24 01:14:57;;;;;;;5.80;4.65;;;13.00;79.20;;;;;;5031517;28;20188;-68
2022/10/24 01:17:52;;;;;;;5.93;3.92;;;12.90;78.40;;;;;;5029711;28;20259;-68
2022/10/24 01:20:33;;;;;;;8.32;4.35;;;12.90;78.70;;;;;;5032793;28;20187;-69
2022/10/24 01:23:21;;;;;;;5.88;4.35;;;12.90;78.80;;;;;;5032576;28;20230;-68
2022/10/24 01:26:04;;;;;;;6.05;5.10;;;12.80;79.40;;;;;;4964912;28;20202;-68
2022/10/24 01:28:52;;;;;;;5.32;4.32;;;12.80;79.00;;;;;;4965733;28;21283;-68
2022/10/24 01:31:34;;;;;;;6.72;4.85;;;12.80;79.50;;;;;;4965560;28;20277;-68
2022/10/24 01:34:09;;;;;;;7.47;5.00;;;12.70;78.70;;;;;;4963621;28;20605;-68
2022/10/24 01:36:54;;;;;;;5.60;5.13;;;12.70;79.10;;;;;;4963787;28;20193;-68
2022/10/24 01:39:22;;;;;;;5.75;4.88;;;12.60;78.90;;;;;;4965159;28;20194;-68
2022/10/24 01:41:50;;;;;;;10.70;5.22;;;12.60;79.20;;;;;;4963514;28;20183;-68
2022/10/24 01:44:19;;;;;;;5.55;4.13;;;12.50;78.90;;;;;;4962840;28;20198;-68
2022/10/24 01:46:55;;;;;;;7.15;5.05;;;12.50;79.20;;;;;;4963952;28;20199;-68
2022/10/24 01:49:25;;;;;;;12.23;4.60;;;12.50;80.80;;;;;;4963212;28;20222;-68
2022/10/24 01:51:54;;;;;;;5.13;4.55;;;12.50;80.80;;;;;;4963244;28;20193;-68
2022/10/24 01:54:20;;;;;;;5.97;4.50;;;12.50;80.50;;;;;;4965987;28;20190;-68
2022/10/24 01:56:46;;;;;;;4.88;4.43;;;12.40;80.60;;;;;;4963992;28;20245;-68
2022/10/24 01:59:27;;;;;;;8.63;5.13;;;12.40;80.50;;;;;;4963506;28;20214;-68
2022/10/24 02:02:07;;;;;;;5.28;4.68;;;12.40;79.90;;;;;;4971480;28;20272;-69
2022/10/24 02:04:39;;;;;;;4.82;4.10;;;12.40;80.10;;;;;;5033248;28;20195;-68
2022/10/24 02:07:09;;;;;;;4.60;4.20;;;12.30;80.40;;;;;;5033887;28;20587;-69
2022/10/24 02:09:38;;;;;;;5.18;4.63;;;12.30;81.10;;;;;;5032320;28;20619;-68
2022/10/24 02:12:07;;;;;;;7.93;4.78;;;12.30;81.60;;;;;;5034973;28;20195;-68
2022/10/24 02:14:38;;;;;;;6.57;4.35;;;12.30;81.80;;;;;;5030833;28;20184;-68
2022/10/24 02:17:05;;;;;;;5.68;4.28;;;12.30;81.60;;;;;;5034479;28;21002;-68
2022/10/24 02:19:31;;;;;;;5.50;4.47;;;12.30;81.90;;;;;;5031406;28;20394;-68
2022/10/24 02:22:24;;;;;;;5.05;3.97;;;12.20;81.00;;;;;;5028660;28;20279;-68
2022/10/24 02:25:20;;;;;;;5.55;3.60;;;12.20;80.20;;;;;;5034244;28;20245;-68
2022/10/24 02:28:04;;;;;;;4.90;4.05;;;12.20;80.60;;;;;;5029673;28;20192;-68
2022/10/24 02:30:32;;;;;;;4.63;4.18;;;12.10;81.00;;;;;;5025558;28;20974;-68
2022/10/24 02:33:00;;;;;;;5.82;3.97;;;12.10;81.00;;;;;;5034314;28;20572;-68
2022/10/24 02:35:29;;;;;;;5.72;4.63;;;12.10;81.40;;;;;;5033111;28;20194;-68
2022/10/24 02:38:01;;;;;;;7.05;4.00;;;12.10;80.70;;;;;;5032882;28;20334;-68
2022/10/24 02:40:28;;;;;;;4.85;3.85;;;12.10;81.20;;;;;;5028973;28;20936;-68
2022/10/24 02:42:57;;;;;;;3.97;3.78;;;12.10;81.50;;;;;;5029344;28;20196;-68
2022/10/24 02:45:23;;;;;;;7.18;4.43;;;12.10;81.40;;;;;;5062868;28;20196;-68
2022/10/24 02:47:53;;;;;;;4.40;4.00;;;12.10;81.60;;;;;;5030989;28;20184;-68
2022/10/24 02:50:19;;;;;;;6.88;4.03;;;12.10;81.90;;;;;;5025663;28;20212;-70
2022/10/24 02:52:45;;;;;;;5.18;4.28;;;12.20;82.20;;;;;;5034726;28;20612;-69
2022/10/24 02:55:10;;;;;;;5.35;3.90;;;12.20;82.20;;;;;;5033693;28;20274;-67
2022/10/24 02:57:37;;;;;;;6.32;4.10;;;12.20;83.20;;;;;;5033806;28;20175;-68
2022/10/24 03:00:03;;;;;;;5.90;4.70;;;12.10;82.80;;;;;;5030276;28;20187;-70
2022/10/24 03:02:29;;;;;;;5.25;4.00;;;12.10;81.90;;;;;;5030977;28;20187;-67
2022/10/24 03:04:55;;;;;;;5.93;4.18;;;12.10;82.00;;;;;;5026670;28;20184;-69
2022/10/24 03:07:20;;;;;;;7.68;4.93;;;12.10;81.90;;;;;;5030785;28;20194;-69
2022/10/24 03:09:46;;;;;;;4.53;3.95;;;12.00;81.90;;;;;;5030308;28;20219;-69
2022/10/24 03:12:16;;;;;;;6.22;4.40;;;12.10;81.90;;;;;;5033248;28;20179;-69
2022/10/24 03:14:43;;;;;;;5.95;4.10;;;12.00;81.70;;;;;;5028916;28;20651;-69
2022/10/24 03:17:09;;;;;;;3.67;3.38;;;12.00;81.70;;;;;;5030701;28;20187;-69
2022/10/24 03:19:35;;;;;;;3.97;3.67;;;12.00;81.30;;;;;;5027340;28;20188;-69
2022/10/24 03:22:00;;;;;;;5.18;3.58;;;12.00;82.50;;;;;;5028233;28;20199;-69
2022/10/24 03:24:26;;;;;;;5.35;3.63;;;12.00;83.00;;;;;;5034119;28;20289;-69
2022/10/24 03:26:51;;;;;;;5.60;4.00;;;12.00;82.40;;;;;;5032234;28;20190;-69
2022/10/24 03:29:18;;;;;;;4.20;3.80;;;12.00;82.50;;;;;;5030223;28;20608;-68
2022/10/24 03:31:44;;;;;;;4.07;3.63;;;11.90;82.30;;;;;;5026335;28;20191;-69
2022/10/24 03:34:10;;;;;;;3.92;3.65;;;12.00;83.30;;;;;;5026539;28;21006;-69
2022/10/24 03:36:35;;;;;;;6.53;3.72;;;12.00;83.20;;;;;;5030016;28;20208;-69
2022/10/24 03:39:01;;;;;;;4.45;3.53;;;11.90;83.80;;;;;;5034169;28;20196;-69
2022/10/24 03:41:27;;;;;;;5.53;4.20;;;11.90;82.80;;;;;;5035948;28;20179;-69
2022/10/24 03:43:53;;;;;;;4.03;3.65;;;11.90;83.40;;;;;;5026299;28;21189;-69
2022/10/24 03:46:18;;;;;;;5.13;4.40;;;11.90;83.80;;;;;;5033388;28;20199;-69
2022/10/24 03:48:44;;;;;;;4.80;4.40;;;11.80;83.20;;;;;;5028883;28;20201;-69
2022/10/24 03:51:10;;;;;;;3.92;3.63;;;11.80;82.70;;;;;;5030912;28;20177;-69
2022/10/24 03:53:35;;;;;;;3.97;3.60;;;11.70;82.70;;;;;;5031198;28;20190;-68
2022/10/24 03:56:01;;;;;;;9.27;3.97;;;11.70;83.20;;;;;;5033242;28;20185;-68
2022/10/24 03:58:27;;;;;;;9.55;4.93;;;11.70;84.40;;;;;;5032050;28;20933;-67
2022/10/24 04:00:55;;;;;;;4.28;3.67;;;11.70;83.90;;;;;;5026426;28;20181;-69
2022/10/24 04:03:21;;;;;;;4.25;3.92;;;11.70;84.80;;;;;;5057361;28;20293;-68
2022/10/24 04:05:47;;;;;;;4.80;4.25;;;11.70;84.20;;;;;;5029516;28;20269;-70
2022/10/24 04:08:12;;;;;;;5.07;3.72;;;11.70;85.40;;;;;;5029481;28;20187;-68
2022/10/24 04:10:38;;;;;;;3.75;3.45;;;11.70;84.70;;;;;;5033885;28;20215;-69
2022/10/24 04:13:04;;;;;;;4.18;3.67;;;11.60;84.90;;;;;;5028763;28;20180;-70
2022/10/24 04:15:30;;;;;;;7.47;4.40;;;11.60;85.90;;;;;;5029600;28;20188;-72
2022/10/24 04:17:55;;;;;;;6.78;4.22;;;11.60;86.10;;;;;;5032553;28;20609;-71
2022/10/24 04:20:22;;;;;;;5.18;4.07;;;11.60;85.60;;;;;;5030344;28;20192;-72
2022/10/24 04:22:48;;;;;;;3.60;3.38;;;11.50;85.30;;;;;;5026978;28;20307;-75
2022/10/24 04:25:15;;;;;;;3.50;3.30;;;11.50;84.20;;;;;;5029939;28;20202;-71
2022/10/24 04:27:41;;;;;;;4.30;4.00;;;11.40;84.00;;;;;;5029550;28;20184;-71
2022/10/24 04:30:08;;;;;;;4.32;3.38;;;11.40;84.10;;;;;;5027504;28;20723;-71
2022/10/24 04:32:34;;;;;;;4.03;3.63;;;11.40;84.40;;;;;;5025737;28;20180;-71
2022/10/24 04:35:01;;;;;;;4.40;4.00;;;11.40;84.50;;;;;;5026112;28;20267;-70
2022/10/24 04:37:26;;;;;;;4.75;4.15;;;11.40;84.40;;;;;;5031365;28;20192;-71
2022/10/24 04:39:55;;;;;;;5.03;4.03;;;11.40;84.10;;;;;;5057698;28;20732;-71
2022/10/24 04:42:21;;;;;;;4.90;4.50;;;11.40;84.70;;;;;;5024831;28;20258;-74
2022/10/24 04:44:47;;;;;;;4.18;3.83;;;11.40;83.50;;;;;;5026265;28;20187;-71
2022/10/24 04:47:13;;;;;;;3.67;3.38;;;11.40;85.40;;;;;;5029341;28;20211;-71
2022/10/24 04:49:39;;;;;;;2.95;2.58;;;11.40;86.40;;;;;;5029998;28;20339;-71
2022/10/24 04:52:04;;;;;;;4.88;4.18;;;11.40;86.00;;;;;;5027651;28;20216;-71
2022/10/24 04:54:30;;;;;;;4.55;4.15;;;11.40;85.40;;;;;;5032826;28;20180;-70
2022/10/24 04:56:56;;;;;;;4.38;3.78;;;11.40;85.30;;;;;;5035657;28;20206;-71
2022/10/24 04:59:21;;;;;;;6.68;4.43;;;11.40;84.90;;;;;;5032909;28;20265;-72
2022/10/24 05:01:47;;;;;;;4.25;3.85;;;11.40;85.00;;;;;;5028396;28;20187;-72
2022/10/24 05:04:13;;;;;;;6.38;4.03;;;11.40;84.90;;;;;;5032083;28;20266;-71
2022/10/24 05:06:39;;;;;;;8.45;4.00;;;11.30;84.30;;;;;;5033115;28;20322;-71
2022/10/24 05:09:04;;;;;;;4.18;3.88;;;11.30;84.70;;;;;;5033740;28;20218;-71
2022/10/24 05:11:30;;;;;;;5.90;4.00;;;11.30;84.40;;;;;;5028219;28;20176;-72
2022/10/24 05:13:56;;;;;;;7.18;5.15;;;11.40;84.50;;;;;;5030405;28;20241;-71
2022/10/24 05:16:22;;;;;;;4.82;4.22;;;11.40;84.50;;;;;;5030097;28;20206;-71
2022/10/24 05:18:48;;;;;;;5.45;4.13;;;11.40;84.40;;;;;;5027415;28;20185;-71
2022/10/24 05:21:14;;;;;;;6.82;4.72;;;11.40;84.60;;;;;;5036827;28;20616;-71
2022/10/24 05:23:39;;;;;;;4.47;3.75;;;11.50;84.60;;;;;;5027525;28;20207;-71
2022/10/24 05:26:05;;;;;;;4.97;4.00;;;11.50;84.80;;;;;;5028119;28;20183;-72
2022/10/24 05:28:32;;;;;;;4.13;3.83;;;11.50;84.80;;;;;;5031426;28;20180;-72
2022/10/24 05:30:58;;;;;;;4.10;3.80;;;11.60;84.90;;;;;;5031264;28;20669;-70
2022/10/24 05:33:24;;;;;;;5.30;4.20;;;11.60;85.10;;;;;;5034097;28;20185;-72
2022/10/24 05:35:50;;;;;;;4.55;4.15;;;11.60;84.90;;;;;;5034677;28;20210;-72
2022/10/24 05:38:16;;;;;;;6.47;4.88;;;11.70;85.30;;;;;;5032768;28;20194;-72
2022/10/24 05:40:42;;;;;;;6.32;4.13;;;11.70;85.10;;;;;;5036261;28;20217;-69
2022/10/24 05:43:08;;;;;;;6.82;4.63;;;11.70;85.20;;;;;;5032505;28;20252;-72
2022/10/24 05:45:33;;;;;;;5.30;4.60;;;11.70;84.90;;;;;;5029526;28;20200;-72
2022/10/24 05:47:59;;;;;;;6.00;4.30;;;11.80;84.70;;;;;;5031033;28;20258;-71
2022/10/24 05:50:25;;;;;;;3.88;3.58;;;11.80;85.00;;;;;;5027791;28;20212;-72
2022/10/24 05:52:52;;;;;;;5.00;4.57;;;11.80;84.80;;;;;;5025691;28;20184;-71
2022/10/24 05:55:18;;;;;;;8.52;5.38;;;11.90;84.90;;;;;;5031965;28;20301;-71
2022/10/24 05:57:43;;;;;;;7.15;5.10;;;11.90;85.00;;;;;;5027370;28;20940;-71
2022/10/24 06:00:12;;;;;;;6.03;5.43;;;12.00;84.70;;;;;;5035192;28;20187;-72
2022/10/24 06:02:38;;;;;;;6.32;5.18;;;12.00;84.60;;;;;;5034577;28;20259;-72
2022/10/24 06:05:05;;;;;;;8.90;5.95;;;12.00;84.80;;;;;;5030436;28;20179;-71
2022/10/24 06:07:30;;;;;;;6.57;5.35;;;12.10;84.60;;;;;;5030979;28;20188;-71
2022/10/24 06:09:56;;;;;;;7.38;5.43;;;12.20;84.70;;;;;;5033669;28;20215;-72
2022/10/24 06:12:22;;;;;;;11.57;6.18;;;12.20;84.70;;;;;;5031008;28;20189;-71
2022/10/24 06:14:48;;;;;;;6.63;6.07;;;12.30;84.70;;;;;;5032673;28;20283;-70
2022/10/24 06:17:14;;;;;;;9.30;6.43;;;12.30;84.80;;;;;;5034462;28;20180;-72
2022/10/24 06:19:40;;;;;;;9.32;6.30;;;12.40;84.80;;;;;;5034404;28;20188;-72
2022/10/24 06:22:07;;;;;;;9.98;6.65;;;12.40;84.70;;;;;;5033517;28;20244;-72
2022/10/24 06:24:37;;;;;;;10.73;6.25;;;12.50;84.50;;;;;;5029134;28;20183;-71
2022/10/24 06:27:03;;;;;;;13.95;6.82;;;12.50;84.40;;;;;;5032622;28;20266;-72
2022/10/24 06:29:29;;;;;;;8.02;7.13;;;12.50;84.70;;;;;;5029178;28;20250;-71
2022/10/24 06:31:55;;;;;;;8.00;5.80;;;12.60;84.00;;;;;;5030102;28;20176;-71
2022/10/24 06:34:21;;;;;;;9.60;5.90;;;12.70;84.50;;;;;;5030533;28;20182;-71
2022/10/24 06:36:46;;;;;;;7.97;6.13;;;12.80;84.30;;;;;;5028789;28;20176;-72
2022/10/24 06:39:12;;;;;;;10.70;6.45;;;12.90;84.20;;;;;;5034433;28;20188;-72
2022/10/24 06:41:38;;;;;;;7.57;5.25;;;13.00;83.90;;;;;;5035848;28;20199;-71
2022/10/24 06:44:04;;;;;;;10.18;5.90;;;13.00;84.30;;;;;;5029289;28;20811;-72
2022/10/24 06:46:30;;;;;;;10.27;6.20;;;13.20;83.80;;;;;;5030622;28;20192;-72
2022/10/24 06:48:55;;;;;;;10.15;5.40;;;13.20;84.10;;;;;;5026027;28;20212;-72
2022/10/24 06:51:22;;;;;;;15.38;6.13;;;13.40;84.10;;;;;;5027676;28;20768;-72
2022/10/24 06:53:48;;;;;;;11.23;5.57;;;13.60;84.50;;;;;;5028520;28;20604;-72
2022/10/24 06:56:16;;;;;;;9.18;6.22;;;13.90;84.70;;;;;;5029527;28;20191;-72
2022/10/24 06:58:42;;;;;;;10.23;6.18;;;14.30;83.70;;;;;;5029548;28;20290;-72
2022/10/24 07:01:16;;;;;;;13.25;6.65;;;14.80;82.90;;;;;;5032441;28;20196;-73
2022/10/24 07:03:43;;;;;;;10.70;5.72;;;15.40;82.70;;;;;;5030125;28;20193;-72
2022/10/24 07:06:14;;;;;;;9.98;6.22;;;16.10;81.80;;;;;;5031183;28;20191;-72
2022/10/24 07:08:39;;;;;;;12.55;6.90;;;16.80;80.30;;;;;;5029225;28;20184;-70
2022/10/24 07:11:05;;;;;;;8.25;5.68;;;17.50;77.80;;;;;;5028769;28;21014;-70
2022/10/24 07:13:31;;;;;;;8.70;6.45;;;18.10;78.00;;;;;;5030970;28;20184;-72
2022/10/24 07:15:56;;;;;;;11.95;6.88;;;18.70;76.10;;;;;;5032061;28;20188;-72
2022/10/24 07:18:26;;;;;;;10.63;6.55;;;19.40;74.40;;;;;;5026619;28;20188;-72
2022/10/24 07:20:52;;;;;;;8.60;6.47;;;20.00;73.20;;;;;;5026129;28;20189;-72
2022/10/24 07:23:18;;;;;;;7.75;6.07;;;20.50;69.90;;;;;;5024449;28;20812;-72
2022/10/24 07:25:44;;;;;;;11.30;6.28;;;21.00;70.20;;;;;;5032758;28;20214;-71
2022/10/24 07:28:14;;;;;;;9.38;6.07;;;21.40;68.10;;;;;;5028360;28;20577;-70
2022/10/24 07:30:42;;;;;;;10.50;6.57;;;21.90;68.60;;;;;;5029264;28;20230;-70
2022/10/24 07:33:08;;;;;;;8.35;6.38;;;22.40;67.40;;;;;;5026894;28;20180;-70
2022/10/24 07:35:33;;;;;;;10.85;6.30;;;23.00;65.50;;;;;;5026812;28;20249;-70
2022/10/24 07:37:59;;;;;;;11.68;7.32;;;23.50;65.90;;;;;;5026366;28;20179;-71
2022/10/24 07:40:25;;;;;;;11.60;7.68;;;24.00;65.20;;;;;;5024482;28;20199;-70
2022/10/24 07:42:50;;;;;;;11.15;7.18;;;24.60;64.20;;;;;;5029260;28;20263;-71
2022/10/24 07:45:16;;;;;;;7.45;6.75;;;25.10;62.70;;;;;;5020798;28;21004;-72
2022/10/24 07:47:42;;;;;;;7.20;6.28;;;25.60;62.30;;;;;;5019402;28;20245;-72
2022/10/24 07:50:08;;;;;;;10.90;5.70;;;26.00;62.30;;;;;;5021825;28;20208;-71
2022/10/24 07:52:33;;;;;;;9.65;5.45;;;26.50;60.60;;;;;;5025620;28;20710;-70
2022/10/24 07:54:59;;;;;;;10.18;6.10;;;26.90;59.80;;;;;;5027447;28;20185;-70
2022/10/24 07:57:25;;;;;;;9.07;6.57;;;27.20;59.00;;;;;;5028464;28;20262;-70
2022/10/24 07:59:51;;;;;;;13.30;6.15;;;27.60;58.10;;;;;;5028748;28;20181;-69
2022/10/24 08:02:17;;;;;;;6.32;5.82;;;27.90;57.60;;;;;;5029927;28;20567;-70
2022/10/24 08:04:43;;;;;;;10.85;6.00;;;28.20;57.50;;;;;;5029775;28;20631;-72
2022/10/24 08:07:13;;;;;;;8.70;6.82;;;28.50;57.20;;;;;;5030386;28;20194;-71
2022/10/24 08:09:45;;;;;;;9.13;7.30;;;28.80;57.10;;;;;;5024097;28;21074;-71
2022/10/24 08:12:11;;;;;;;9.18;7.53;;;29.20;56.20;;;;;;5034590;28;20317;-71
2022/10/24 08:14:40;;;;;;;12.05;8.43;;;29.60;55.40;;;;;;5028666;28;20282;-71
2022/10/24 08:17:06;;;;;;;10.07;7.97;;;30.00;54.40;;;;;;5025241;28;20194;-71
2022/10/24 08:19:32;;;;;;;30.02;9.90;;;30.20;54.50;;;;;;5029767;28;20294;-71
2022/10/24 08:21:59;;;;;;;16.05;9.45;;;30.30;54.60;;;;;;5029701;28;20187;-71
2022/10/24 08:24:25;;;;;;;12.35;8.60;;;30.50;54.30;;;;;;5021589;28;20184;-70
2022/10/24 08:26:51;;;;;;;11.63;8.82;;;30.70;53.60;;;;;;5026666;28;20180;-71
2022/10/24 08:29:21;;;;;;;10.55;9.23;;;30.90;53.40;;;;;;5029135;28;20207;-72
2022/10/24 08:31:51;;;;;;;13.75;8.48;;;31.10;52.00;;;;;;5031834;28;20286;-71
2022/10/24 08:34:18;;;;;;;14.68;9.13;;;31.30;50.20;;;;;;5033300;28;20191;-71
2022/10/24 08:36:44;;;;;;;14.15;8.95;;;31.50;51.90;;;;;;5032185;28;20206;-71
2022/10/24 08:39:10;;;;;;;21.38;9.32;;;31.70;50.80;;;;;;5024479;28;20275;-71
2022/10/24 08:41:39;;;;;;;12.77;9.38;;;31.70;51.80;;;;;;5031138;28;20802;-71
2022/10/24 08:44:39;;;;;;;17.33;8.52;;;31.80;49.80;;;;;;5030279;28;20184;-71
2022/10/24 08:47:39;;;;;;;11.43;8.27;;;32.00;50.10;;;;;;5030460;28;20246;-72
2022/10/24 08:50:37;;;;;;;13.25;8.38;;;32.30;50.80;;;;;;5031771;28;21079;-73
2022/10/24 08:53:15;;;;;;;15.38;8.85;;;32.70;50.50;;;;;;5029252;28;20208;-72
2022/10/24 08:55:48;;;;;;;14.18;7.95;;;33.10;49.90;;;;;;5039771;28;20275;-72
2022/10/24 08:58:35;;;;;;;8.00;7.40;;;33.40;49.10;;;;;;5028050;28;20206;-72
2022/10/24 09:01:13;;;;;;;9.38;7.03;;;33.70;48.20;;;;;;4948633;28;20597;-72
2022/10/24 09:03:49;;;;;;;7.85;7.15;;;34.00;49.10;;;;;;4954025;28;20308;-70
2022/10/24 09:06:23;;;;;;;14.95;7.63;;;34.20;49.70;;;;;;4947649;28;20289;-70
2022/10/24 09:08:53;;;;;;;9.95;7.78;;;34.50;49.20;;;;;;4952651;28;20256;-70
2022/10/24 09:11:45;;;;;;;7.65;6.95;;;34.80;49.10;;;;;;4948386;28;20191;-70
2022/10/24 09:14:19;;;;;;;10.55;7.03;;;35.00;47.70;;;;;;4948547;28;20258;-70
2022/10/24 09:16:50;;;;;;;8.68;7.40;;;35.30;48.00;;;;;;4947229;28;20202;-71
2022/10/24 09:19:20;;;;;;;13.63;7.82;;;35.60;48.00;;;;;;4949193;28;20202;-71
2022/10/24 09:21:47;;;;;;;7.90;7.15;;;35.70;48.10;;;;;;4952623;28;20194;-70
2022/10/24 09:24:41;;;;;;;7.70;6.97;;;35.90;47.90;;;;;;4949568;28;20188;-71
2022/10/24 09:27:14;;;;;;;11.15;7.07;;;36.10;46.40;;;;;;4948135;28;20186;-71
2022/10/24 09:29:40;;;;;;;8.52;7.07;;;36.30;48.00;;;;;;4948486;28;20218;-71
2022/10/24 09:32:17;;;;;;;7.85;7.07;;;36.40;47.30;;;;;;4950281;28;20206;-72
2022/10/24 09:34:46;;;;;;;9.60;6.75;;;36.60;47.70;;;;;;4950899;28;20307;-71
2022/10/24 09:37:38;;;;;;;6.90;6.30;;;36.80;47.50;;;;;;4959241;28;20174;-72
2022/10/24 09:40:09;;;;;;;7.32;6.30;;;37.00;45.10;;;;;;5032288;28;20843;-72
2022/10/24 09:42:37;;;;;;;7.47;6.85;;;37.10;47.00;;;;;;5032775;28;20210;-72
2022/10/24 09:45:28;;;;;;;8.02;6.93;;;37.30;47.20;;;;;;5032551;28;20684;-71
2022/10/24 09:48:21;;;;;;;7.55;6.95;;;37.30;45.60;;;;;;5033919;28;20686;-72
2022/10/24 09:50:50;;;;;;;13.38;7.20;;;37.30;46.10;;;;;;5025465;28;20626;-72
2022/10/24 09:53:29;;;;;;;8.00;7.03;;;37.40;46.60;;;;;;5031683;28;20659;-72
2022/10/24 09:56:06;;;;;;;8.50;6.88;;;37.50;46.00;;;;;;5030400;28;21010;-72
2022/10/24 09:58:32;;;;;;;7.72;6.55;;;37.50;46.70;;;;;;5028025;28;20194;-72
2022/10/24 10:01:16;;;;;;;7.65;6.95;;;37.60;46.30;;;;;;5032485;28;20196;-72
2022/10/24 10:03:58;;;;;;;6.80;6.30;;;37.80;46.30;;;;;;5029571;28;20696;-72
2022/10/24 10:06:24;;;;;;;7.35;6.72;;;37.90;46.10;;;;;;5033074;28;20958;-72
2022/10/24 10:08:53;;;;;;;6.82;6.30;;;38.00;46.00;;;;;;5029297;28;20179;-71
2022/10/24 10:11:30;;;;;;;6.50;5.85;;;38.10;44.20;;;;;;5030284;28;20202;-71
2022/10/24 10:13:58;;;;;;;8.52;6.53;;;38.10;46.10;;;;;;5029037;28;20215;-71
2022/10/24 10:16:37;;;;;;;6.57;6.05;;;38.20;44.60;;;;;;5034002;28;20176;-71
2022/10/24 10:19:13;;;;;;;5.78;5.28;;;38.10;43.70;;;;;;5033864;28;20727;-71
2022/10/24 10:22:00;;;;;;;12.52;5.40;;;38.20;45.80;;;;;;5026376;28;20233;-72
2022/10/24 10:24:38;;;;;;;11.15;5.60;;;38.10;43.00;;;;;;5030837;28;20179;-71
2022/10/24 10:27:33;;;;;;;7.95;5.00;;;38.00;44.10;;;;;;5029012;28;20745;-71
2022/10/24 10:30:12;;;;;;;5.35;4.45;;;37.70;42.50;;;;;;5025777;28;20321;-72
2022/10/24 10:33:09;;;;;;;5.43;5.03;;;37.60;44.90;;;;;;5030438;28;20207;-71
2022/10/24 10:36:25;;;;;;;4.57;4.18;;;37.60;41.90;;;;;;4961980;28;20194;-72
2022/10/24 10:39:14;;;;;;;4.45;4.25;;;37.60;42.40;;;;;;4841568;29;20201;-71
2022/10/24 10:41:57;;;;;;;11.52;4.78;;;37.50;43.40;;;;;;4832770;29;20206;-71
2022/10/24 10:44:54;;;;;;;4.82;4.00;;;37.50;45.20;;;;;;4834442;29;20210;-71
2022/10/24 10:47:38;;;;;;;5.78;4.30;;;37.60;42.80;;;;;;4835214;29;20210;-71
2022/10/24 10:50:29;;;;;;;4.90;4.45;;;37.60;45.50;;;;;;4836866;29;20641;-72
2022/10/24 10:53:13;;;;;;;4.88;4.03;;;37.80;41.70;;;;;;4784978;29;20204;-71
2022/10/24 10:55:59;;;;;;;4.55;4.22;;;37.90;43.40;;;;;;4785651;29;20209;-71
2022/10/24 10:58:47;;;;;;;5.68;4.45;;;37.90;43.70;;;;;;4784257;29;20355;-73
2022/10/24 11:01:56;;;;;;;4.35;3.97;;;38.00;42.20;;;;;;4781574;29;20227;-73
2022/10/24 11:04:56;;;;;;;4.03;3.72;;;38.00;43.10;;;;;;4785144;29;20196;-72
2022/10/24 11:07:24;;;;;;;8.70;4.07;;;38.10;44.30;;;;;;4784510;29;20199;-73
2022/10/24 11:09:57;;;;;;;5.03;4.60;;;38.10;43.50;;;;;;4787609;29;20305;-72
2022/10/24 11:12:35;;;;;;;7.05;3.63;;;38.10;43.60;;;;;;4803161;29;20206;-73
2022/10/24 11:15:04;;;;;;;3.75;3.13;;;38.10;43.60;;;;;;4861935;28;20204;-73
2022/10/24 11:17:41;;;;;;;6.22;4.50;;;37.90;44.20;;;;;;4929843;28;20191;-72
2022/10/24 11:20:33;;;;;;;6.43;3.80;;;37.70;44.10;;;;;;4935911;29;20403;-73
2022/10/24 11:23:13;;;;;;;6.50;4.35;;;37.60;42.50;;;;;;4936287;28;20222;-72
2022/10/24 11:26:11;;;;;;;4.05;3.60;;;37.60;43.10;;;;;;4933268;29;20671;-72
2022/10/24 11:29:11;;;;;;;6.40;3.97;;;37.70;42.20;;;;;;4929404;28;20206;-73
2022/10/24 11:31:48;;;;;;;5.68;3.70;;;37.90;42.20;;;;;;5006084;28;20313;-72
2022/10/24 11:34:43;;;;;;;4.43;3.65;;;38.10;42.80;;;;;;5010872;28;20319;-72
2022/10/24 11:37:26;;;;;;;6.88;2.80;;;38.20;43.40;;;;;;5003911;28;20184;-72
2022/10/24 11:40:14;;;;;;;7.30;3.50;;;38.40;42.80;;;;;;5011739;28;20181;-72
2022/10/24 11:43:04;;;;;;;10.10;4.07;;;38.40;41.80;;;;;;5002885;28;20703;-71
2022/10/24 11:45:38;;;;;;;7.63;4.20;;;38.10;42.00;;;;;;5029568;28;20204;-71
2022/10/24 11:48:39;;;;;;;6.05;4.03;;;37.90;42.10;;;;;;5026830;28;20199;-71
2022/10/24 11:51:11;;;;;;;8.02;3.88;;;37.70;41.60;;;;;;4961726;28;20213;-71
2022/10/24 11:53:38;;;;;;;4.22;3.97;;;37.70;42.40;;;;;;4960055;28;20278;-72
2022/10/24 11:56:46;;;;;;;4.30;4.03;;;37.70;42.10;;;;;;4959317;28;20667;-71
2022/10/24 11:59:22;;;;;;;4.93;4.07;;;37.80;42.80;;;;;;4958436;28;20297;-71
2022/10/24 12:01:54;;;;;;;6.05;4.35;;;37.50;41.70;;;;;;4960333;28;20201;-71
2022/10/24 12:04:56;;;;;;;5.45;3.90;;;37.40;42.10;;;;;;4959385;28;20264;-72
2022/10/24 12:07:59;;;;;;;5.32;4.13;;;37.30;42.60;;;;;;4958606;28;20589;-71
2022/10/24 12:11:03;;;;;;;7.72;4.38;;;37.30;42.50;;;;;;4920977;29;20238;-71
2022/10/24 12:14:10;;;;;;;6.22;4.15;;;37.20;42.20;;;;;;4919846;29;20206;-71
2022/10/24 12:17:04;;;;;;;4.13;3.80;;;37.20;42.70;;;;;;4902533;29;20196;-71
2022/10/24 12:19:31;;;;;;;5.53;4.30;;;37.20;43.20;;;;;;4855996;29;20254;-71
2022/10/24 12:22:00;;;;;;;4.18;3.85;;;37.30;43.00;;;;;;4852642;29;20201;-71
2022/10/24 12:24:37;;;;;;;9.05;4.78;;;37.10;43.60;;;;;;4855983;29;20198;-71
2022/10/24 12:27:05;;;;;;;4.82;3.95;;;36.90;42.10;;;;;;4852130;29;20289;-71
2022/10/24 12:29:34;;;;;;;11.52;4.13;;;36.30;42.60;;;;;;4859461;29;20332;-71
2022/10/24 12:32:27;;;;;;;8.90;4.85;;;36.10;43.10;;;;;;4844053;29;20201;-72
2022/10/24 12:35:03;;;;;;;10.10;4.72;;;36.00;43.00;;;;;;4858718;29;20665;-72
2022/10/24 12:37:28;;;;;;;4.18;3.65;;;35.90;43.30;;;;;;4858934;29;20380;-72
2022/10/24 12:39:54;;;;;;;10.32;4.57;;;35.60;43.80;;;;;;4857199;29;21072;-72
2022/10/24 12:42:23;;;;;;;5.60;3.80;;;35.50;44.40;;;;;;4859622;29;20277;-72
2022/10/24 12:44:50;;;;;;;6.93;4.50;;;35.40;43.70;;;;;;4857635;29;20201;-72
2022/10/24 12:47:36;;;;;;;8.68;4.30;;;35.40;44.30;;;;;;4852099;29;20867;-72
2022/10/24 12:50:20;;;;;;;10.15;4.68;;;35.40;44.70;;;;;;4859444;29;20304;-72
2022/10/24 12:52:46;;;;;;;9.55;4.72;;;35.20;43.40;;;;;;4905066;29;20242;-72
2022/10/24 12:55:37;;;;;;;14.48;4.95;;;35.20;43.70;;;;;;4936518;28;20199;-72
2022/10/24 12:58:43;;;;;;;5.75;4.20;;;35.20;44.30;;;;;;5027481;28;20191;-72
2022/10/24 13:01:28;;;;;;;11.15;3.90;;;35.20;43.90;;;;;;4946527;28;20285;-71
2022/10/24 13:04:31;;;;;;;9.07;3.78;;;35.20;43.60;;;;;;4945452;28;20224;-71
2022/10/24 13:07:31;;;;;;;9.82;4.65;;;35.10;43.60;;;;;;4949313;28;20194;-71
2022/10/24 13:10:35;;;;;;;7.55;3.80;;;34.90;43.90;;;;;;4948901;28;20222;-71
2022/10/24 13:13:27;;;;;;;8.02;3.83;;;34.60;44.40;;;;;;4944190;28;20202;-71